sensor_id;sensor_type;location;lat;lon;timestamp;temperature;humidity
8099;DHT22;4092;47.876;9.372;2022-11-20T00:01:27;2.60;99.90
8099;DHT22;4092;47.876;9.372;2022-11-20T00:03:56;2.60;99.90
8099;DHT22;4092;47.876;9.372;2022-11-20T00:06:24;2.50;99.90
8099;DHT22;4092;47.876;9.372;2022-11-20T00:08:53;2.60;99.90
8099;DHT22;4092;47.876;9.372;2022-11-20T00:11:23;2.60;99.90
8099;DHT22;4092;47.876;9.372;2022-11-20T00:13:52;2.70;99.90
8099;DHT22;4092;47.876;9.372;2022-11-20T00:16:20;2.70;99.90
8099;DHT22;4092;47.876;9.372;2022-11-20T00:18:48;2.80;99.90
8099;DHT22;4092;47.876;9.372;2022-11-20T00:21:17;2.80;99.90
8099;DHT22;4092;47.876;9.372;2022-11-20T00:23:45;2.80;99.90
8099;DHT22;4092;47.876;9.372;2022-11-20T00:26:14;2.90;99.90
8099;DHT22;4092;47.876;9.372;2022-11-20T00:28:49;2.90;99.90
8099;DHT22;4092;47.876;9.372;2022-11-20T00:31:16;2.90;99.90
8099;DHT22;4092;47.876;9.372;2022-11-20T00:33:44;2.80;99.90
8099;DHT22;4092;47.876;9.372;2022-11-20T00:36:13;2.80;99.90
8099;DHT22;4092;47.876;9.372;2022-11-20T00:38:40;2.80;99.90
8099;DHT22;4092;47.876;9.372;2022-11-20T00:41:09;2.80;99.90
8099;DHT22;4092;47.876;9.372;2022-11-20T00:43:37;2.80;99.90
8099;DHT22;4092;47.876;9.372;2022-11-20T00:46:07;2.80;99.90
8099;DHT22;4092;47.876;9.372;2022-11-20T00:48:35;2.80;99.90
8099;DHT22;4092;47.876;9.372;2022-11-20T00:51:03;2.80;99.90
8099;DHT22;4092;47.876;9.372;2022-11-20T00:53:30;2.80;99.90
8099;DHT22;4092;47.876;9.372;2022-11-20T00:55:59;2.70;99.90
8099;DHT22;4092;47.876;9.372;2022-11-20T00:58:29;2.70;99.90
8099;DHT22;4092;47.876;9.372;2022-11-20T01:01:00;2.60;99.90
8099;DHT22;4092;47.876;9.372;2022-11-20T01:03:30;2.60;99.90
8099;DHT22;4092;47.876;9.372;2022-11-20T01:06:00;2.70;99.90
8099;DHT22;4092;47.876;9.372;2022-11-20T01:08:29;2.70;99.90
8099;DHT22;4092;47.876;9.372;2022-11-20T01:10:59;2.70;99.90
8099;DHT22;4092;47.876;9.372;2022-11-20T01:13:26;2.60;99.90
8099;DHT22;4092;47.876;9.372;2022-11-20T01:16:08;2.60;99.90
8099;DHT22;4092;47.876;9.372;2022-11-20T01:18:38;2.60;99.90
8099;DHT22;4092;47.876;9.372;2022-11-20T01:21:07;2.50;99.90
8099;DHT22;4092;47.876;9.372;2022-11-20T01:23:37;2.60;99.90
8099;DHT22;4092;47.876;9.372;2022-11-20T01:26:07;2.70;99.90
8099;DHT22;4092;47.876;9.372;2022-11-20T01:28:34;2.70;99.90
8099;DHT22;4092;47.876;9.372;2022-11-20T01:31:10;2.70;99.90
8099;DHT22;4092;47.876;9.372;2022-11-20T01:33:40;2.70;99.90
8099;DHT22;4092;47.876;9.372;2022-11-20T01:36:08;2.70;99.90
8099;DHT22;4092;47.876;9.372;2022-11-20T01:38:35;2.70;99.90
8099;DHT22;4092;47.876;9.372;2022-11-20T01:41:02;2.80;99.90
8099;DHT22;4092;47.876;9.372;2022-11-20T01:43:29;2.80;99.90
8099;DHT22;4092;47.876;9.372;2022-11-20T01:46:04;2.80;99.90
8099;DHT22;4092;47.876;9.372;2022-11-20T01:48:38;2.80;99.90
8099;DHT22;4092;47.876;9.372;2022-11-20T01:51:12;2.80;99.90
8099;DHT22;4092;47.876;9.372;2022-11-20T01:53:42;2.80;99.90
8099;DHT22;4092;47.876;9.372;2022-11-20T01:56:12;2.80;99.90
8099;DHT22;4092;47.876;9.372;2022-11-20T01:58:43;2.90;99.90
8099;DHT22;4092;47.876;9.372;2022-11-20T02:01:12;2.90;99.90
8099;DHT22;4092;47.876;9.372;2022-11-20T02:03:40;2.90;99.90
8099;DHT22;4092;47.876;9.372;2022-11-20T02:06:13;2.90;99.90
8099;DHT22;4092;47.876;9.372;2022-11-20T02:08:41;2.90;99.90
8099;DHT22;4092;47.876;9.372;2022-11-20T02:11:08;3.00;99.90
8099;DHT22;4092;47.876;9.372;2022-11-20T02:13:36;3.00;99.90
8099;DHT22;4092;47.876;9.372;2022-11-20T02:16:14;2.90;99.90
8099;DHT22;4092;47.876;9.372;2022-11-20T02:18:42;3.00;99.90
8099;DHT22;4092;47.876;9.372;2022-11-20T02:21:25;3.10;99.90
8099;DHT22;4092;47.876;9.372;2022-11-20T02:24:01;3.10;99.90
8099;DHT22;4092;47.876;9.372;2022-11-20T02:26:31;3.10;99.90
8099;DHT22;4092;47.876;9.372;2022-11-20T02:29:00;3.10;99.90
8099;DHT22;4092;47.876;9.372;2022-11-20T02:31:27;3.10;99.90
8099;DHT22;4092;47.876;9.372;2022-11-20T02:33:55;3.10;99.90
8099;DHT22;4092;47.876;9.372;2022-11-20T02:36:25;3.10;99.90
8099;DHT22;4092;47.876;9.372;2022-11-20T02:38:53;3.10;99.90
8099;DHT22;4092;47.876;9.372;2022-11-20T02:41:22;3.10;99.90
8099;DHT22;4092;47.876;9.372;2022-11-20T02:43:56;3.10;99.90
8099;DHT22;4092;47.876;9.372;2022-11-20T02:46:23;3.00;99.90
8099;DHT22;4092;47.876;9.372;2022-11-20T02:48:50;3.00;99.90
8099;DHT22;4092;47.876;9.372;2022-11-20T02:51:17;3.00;99.90
8099;DHT22;4092;47.876;9.372;2022-11-20T02:53:44;3.00;99.90
8099;DHT22;4092;47.876;9.372;2022-11-20T02:56:11;3.10;99.90
8099;DHT22;4092;47.876;9.372;2022-11-20T02:58:40;3.10;99.90
8099;DHT22;4092;47.876;9.372;2022-11-20T03:01:07;3.10;99.90
8099;DHT22;4092;47.876;9.372;2022-11-20T03:03:33;3.00;99.90
8099;DHT22;4092;47.876;9.372;2022-11-20T03:06:01;3.10;99.90
8099;DHT22;4092;47.876;9.372;2022-11-20T03:08:28;3.00;99.90
8099;DHT22;4092;47.876;9.372;2022-11-20T03:10:55;3.00;99.90
8099;DHT22;4092;47.876;9.372;2022-11-20T03:13:22;2.90;99.90
8099;DHT22;4092;47.876;9.372;2022-11-20T03:15:50;2.90;99.90
8099;DHT22;4092;47.876;9.372;2022-11-20T03:18:17;2.90;99.90
8099;DHT22;4092;47.876;9.372;2022-11-20T03:20:44;2.80;99.90
8099;DHT22;4092;47.876;9.372;2022-11-20T03:23:11;2.90;99.90
8099;DHT22;4092;47.876;9.372;2022-11-20T03:25:38;2.80;99.90
8099;DHT22;4092;47.876;9.372;2022-11-20T03:28:05;2.90;99.90
8099;DHT22;4092;47.876;9.372;2022-11-20T03:30:32;2.90;99.90
8099;DHT22;4092;47.876;9.372;2022-11-20T03:33:00;2.90;99.90
8099;DHT22;4092;47.876;9.372;2022-11-20T03:35:27;2.90;99.90
8099;DHT22;4092;47.876;9.372;2022-11-20T03:37:54;2.90;99.90
8099;DHT22;4092;47.876;9.372;2022-11-20T03:40:21;2.90;99.90
8099;DHT22;4092;47.876;9.372;2022-11-20T03:42:48;2.80;99.90
8099;DHT22;4092;47.876;9.372;2022-11-20T03:45:16;2.80;99.90
8099;DHT22;4092;47.876;9.372;2022-11-20T03:47:44;2.80;99.90
8099;DHT22;4092;47.876;9.372;2022-11-20T03:50:13;2.80;99.90
8099;DHT22;4092;47.876;9.372;2022-11-20T03:52:40;2.80;99.90
8099;DHT22;4092;47.876;9.372;2022-11-20T03:55:08;2.80;99.90
8099;DHT22;4092;47.876;9.372;2022-11-20T03:57:35;2.80;99.90
8099;DHT22;4092;47.876;9.372;2022-11-20T04:00:03;2.70;99.90
8099;DHT22;4092;47.876;9.372;2022-11-20T04:02:30;2.70;99.90
8099;DHT22;4092;47.876;9.372;2022-11-20T04:04:57;2.70;99.90
8099;DHT22;4092;47.876;9.372;2022-11-20T04:07:26;2.70;99.90
8099;DHT22;4092;47.876;9.372;2022-11-20T04:09:53;2.70;99.90
8099;DHT22;4092;47.876;9.372;2022-11-20T04:12:20;2.70;99.90
8099;DHT22;4092;47.876;9.372;2022-11-20T04:14:47;2.70;99.90
8099;DHT22;4092;47.876;9.372;2022-11-20T04:17:13;2.70;99.90
8099;DHT22;4092;47.876;9.372;2022-11-20T04:19:40;2.70;99.90
8099;DHT22;4092;47.876;9.372;2022-11-20T04:22:07;2.70;99.90
8099;DHT22;4092;47.876;9.372;2022-11-20T04:24:38;2.60;99.90
8099;DHT22;4092;47.876;9.372;2022-11-20T04:27:05;2.60;99.90
8099;DHT22;4092;47.876;9.372;2022-11-20T04:29:32;2.60;99.90
8099;DHT22;4092;47.876;9.372;2022-11-20T04:31:59;2.60;99.90
8099;DHT22;4092;47.876;9.372;2022-11-20T04:34:26;2.60;99.90
8099;DHT22;4092;47.876;9.372;2022-11-20T04:36:53;2.60;99.90
8099;DHT22;4092;47.876;9.372;2022-11-20T04:39:20;2.50;99.90
8099;DHT22;4092;47.876;9.372;2022-11-20T04:41:48;2.50;99.90
8099;DHT22;4092;47.876;9.372;2022-11-20T04:44:35;2.50;99.90
8099;DHT22;4092;47.876;9.372;2022-11-20T04:47:02;2.50;99.90
8099;DHT22;4092;47.876;9.372;2022-11-20T04:49:29;2.50;99.90
8099;DHT22;4092;47.876;9.372;2022-11-20T04:51:57;2.60;99.90
8099;DHT22;4092;47.876;9.372;2022-11-20T04:54:24;2.50;99.90
8099;DHT22;4092;47.876;9.372;2022-11-20T04:56:52;2.50;99.90
8099;DHT22;4092;47.876;9.372;2022-11-20T04:59:19;2.50;99.90
8099;DHT22;4092;47.876;9.372;2022-11-20T05:01:46;2.50;99.90
8099;DHT22;4092;47.876;9.372;2022-11-20T05:04:13;2.50;99.90
8099;DHT22;4092;47.876;9.372;2022-11-20T05:06:40;2.50;99.90
8099;DHT22;4092;47.876;9.372;2022-11-20T05:09:07;2.40;99.90
8099;DHT22;4092;47.876;9.372;2022-11-20T05:11:34;2.50;99.90
8099;DHT22;4092;47.876;9.372;2022-11-20T05:14:02;2.50;99.90
8099;DHT22;4092;47.876;9.372;2022-11-20T05:16:29;2.50;99.90
8099;DHT22;4092;47.876;9.372;2022-11-20T05:18:56;2.50;99.90
8099;DHT22;4092;47.876;9.372;2022-11-20T05:21:23;2.50;99.90
8099;DHT22;4092;47.876;9.372;2022-11-20T05:23:50;2.50;99.90
8099;DHT22;4092;47.876;9.372;2022-11-20T05:26:19;2.50;99.90
8099;DHT22;4092;47.876;9.372;2022-11-20T05:28:47;2.50;99.90
8099;DHT22;4092;47.876;9.372;2022-11-20T05:31:17;2.50;99.90
8099;DHT22;4092;47.876;9.372;2022-11-20T05:33:45;2.40;99.90
8099;DHT22;4092;47.876;9.372;2022-11-20T05:36:13;2.40;99.90
8099;DHT22;4092;47.876;9.372;2022-11-20T05:38:41;2.40;99.90
8099;DHT22;4092;47.876;9.372;2022-11-20T05:41:10;2.40;99.90
8099;DHT22;4092;47.876;9.372;2022-11-20T05:43:39;2.40;99.90
8099;DHT22;4092;47.876;9.372;2022-11-20T05:46:08;2.40;99.90
8099;DHT22;4092;47.876;9.372;2022-11-20T05:48:37;2.40;99.90
8099;DHT22;4092;47.876;9.372;2022-11-20T05:51:07;2.40;99.90
8099;DHT22;4092;47.876;9.372;2022-11-20T05:53:36;2.40;99.90
8099;DHT22;4092;47.876;9.372;2022-11-20T05:56:05;2.40;99.90
8099;DHT22;4092;47.876;9.372;2022-11-20T05:58:33;2.40;99.90
8099;DHT22;4092;47.876;9.372;2022-11-20T06:01:05;2.50;99.90
8099;DHT22;4092;47.876;9.372;2022-11-20T06:03:33;2.50;99.90
8099;DHT22;4092;47.876;9.372;2022-11-20T06:06:01;2.60;99.90
8099;DHT22;4092;47.876;9.372;2022-11-20T06:08:29;2.60;99.90
8099;DHT22;4092;47.876;9.372;2022-11-20T06:10:56;2.70;99.90
8099;DHT22;4092;47.876;9.372;2022-11-20T06:13:23;2.70;99.90
8099;DHT22;4092;47.876;9.372;2022-11-20T06:15:50;2.70;99.90
8099;DHT22;4092;47.876;9.372;2022-11-20T06:18:18;2.60;99.90
8099;DHT22;4092;47.876;9.372;2022-11-20T06:20:45;2.60;99.90
8099;DHT22;4092;47.876;9.372;2022-11-20T06:23:14;2.70;99.90
8099;DHT22;4092;47.876;9.372;2022-11-20T06:25:42;2.70;99.90
8099;DHT22;4092;47.876;9.372;2022-11-20T06:28:09;2.70;99.90
8099;DHT22;4092;47.876;9.372;2022-11-20T06:30:37;2.70;99.90
8099;DHT22;4092;47.876;9.372;2022-11-20T06:33:04;2.70;99.90
8099;DHT22;4092;47.876;9.372;2022-11-20T06:35:30;2.70;99.90
8099;DHT22;4092;47.876;9.372;2022-11-20T06:37:57;2.60;99.90
8099;DHT22;4092;47.876;9.372;2022-11-20T06:40:26;2.60;99.90
8099;DHT22;4092;47.876;9.372;2022-11-20T06:42:53;2.70;99.90
8099;DHT22;4092;47.876;9.372;2022-11-20T06:45:21;2.60;99.90
8099;DHT22;4092;47.876;9.372;2022-11-20T06:47:48;2.70;99.90
8099;DHT22;4092;47.876;9.372;2022-11-20T06:50:15;2.60;99.90
8099;DHT22;4092;47.876;9.372;2022-11-20T06:52:42;2.60;99.90
8099;DHT22;4092;47.876;9.372;2022-11-20T06:55:09;2.60;99.90
8099;DHT22;4092;47.876;9.372;2022-11-20T06:57:37;2.60;99.90
8099;DHT22;4092;47.876;9.372;2022-11-20T07:00:05;2.60;99.90
8099;DHT22;4092;47.876;9.372;2022-11-20T07:02:32;2.60;99.90
8099;DHT22;4092;47.876;9.372;2022-11-20T07:04:59;2.60;99.90
8099;DHT22;4092;47.876;9.372;2022-11-20T07:07:26;2.60;99.90
8099;DHT22;4092;47.876;9.372;2022-11-20T07:09:53;2.60;99.90
8099;DHT22;4092;47.876;9.372;2022-11-20T07:12:20;2.70;99.90
8099;DHT22;4092;47.876;9.372;2022-11-20T07:14:49;2.80;99.90
8099;DHT22;4092;47.876;9.372;2022-11-20T07:17:16;2.80;99.90
8099;DHT22;4092;47.876;9.372;2022-11-20T07:19:43;2.80;99.90
8099;DHT22;4092;47.876;9.372;2022-11-20T07:22:10;2.90;99.90
8099;DHT22;4092;47.876;9.372;2022-11-20T07:24:37;2.90;99.90
8099;DHT22;4092;47.876;9.372;2022-11-20T07:27:04;2.90;99.90
8099;DHT22;4092;47.876;9.372;2022-11-20T07:29:31;2.90;99.90
8099;DHT22;4092;47.876;9.372;2022-11-20T07:31:59;2.90;99.90
8099;DHT22;4092;47.876;9.372;2022-11-20T07:34:26;2.90;99.90
8099;DHT22;4092;47.876;9.372;2022-11-20T07:36:53;2.90;99.90
8099;DHT22;4092;47.876;9.372;2022-11-20T07:39:20;3.00;99.90
8099;DHT22;4092;47.876;9.372;2022-11-20T07:41:47;3.00;99.90
8099;DHT22;4092;47.876;9.372;2022-11-20T07:44:14;3.00;99.90
8099;DHT22;4092;47.876;9.372;2022-11-20T07:46:41;3.10;99.90
8099;DHT22;4092;47.876;9.372;2022-11-20T07:49:09;3.10;99.90
8099;DHT22;4092;47.876;9.372;2022-11-20T07:51:36;3.20;99.90
8099;DHT22;4092;47.876;9.372;2022-11-20T07:54:03;3.20;99.90
8099;DHT22;4092;47.876;9.372;2022-11-20T07:56:31;3.20;99.90
8099;DHT22;4092;47.876;9.372;2022-11-20T07:58:59;3.10;99.90
8099;DHT22;4092;47.876;9.372;2022-11-20T08:01:26;3.10;99.90
8099;DHT22;4092;47.876;9.372;2022-11-20T08:03:53;3.10;99.90
8099;DHT22;4092;47.876;9.372;2022-11-20T08:06:22;3.10;99.90
8099;DHT22;4092;47.876;9.372;2022-11-20T08:08:50;3.20;99.90
8099;DHT22;4092;47.876;9.372;2022-11-20T08:11:17;3.20;99.90
8099;DHT22;4092;47.876;9.372;2022-11-20T08:14:01;3.20;99.90
8099;DHT22;4092;47.876;9.372;2022-11-20T08:16:42;3.20;99.90
8099;DHT22;4092;47.876;9.372;2022-11-20T08:19:10;3.20;99.90
8099;DHT22;4092;47.876;9.372;2022-11-20T08:21:39;3.30;99.90
8099;DHT22;4092;47.876;9.372;2022-11-20T08:24:07;3.30;99.90
8099;DHT22;4092;47.876;9.372;2022-11-20T08:26:34;3.20;99.90
8099;DHT22;4092;47.876;9.372;2022-11-20T08:29:01;3.20;99.90
8099;DHT22;4092;47.876;9.372;2022-11-20T08:31:28;3.20;99.90
8099;DHT22;4092;47.876;9.372;2022-11-20T08:33:56;3.30;99.90
8099;DHT22;4092;47.876;9.372;2022-11-20T08:36:24;3.30;99.90
8099;DHT22;4092;47.876;9.372;2022-11-20T08:38:53;3.30;99.90
8099;DHT22;4092;47.876;9.372;2022-11-20T08:41:21;3.30;99.90
8099;DHT22;4092;47.876;9.372;2022-11-20T08:43:55;3.30;99.90
8099;DHT22;4092;47.876;9.372;2022-11-20T08:46:23;3.30;99.90
8099;DHT22;4092;47.876;9.372;2022-11-20T08:48:51;3.40;99.90
8099;DHT22;4092;47.876;9.372;2022-11-20T08:51:19;3.40;99.90
8099;DHT22;4092;47.876;9.372;2022-11-20T08:53:46;3.50;99.90
8099;DHT22;4092;47.876;9.372;2022-11-20T08:56:17;3.50;99.90
8099;DHT22;4092;47.876;9.372;2022-11-20T08:58:44;3.60;99.90
8099;DHT22;4092;47.876;9.372;2022-11-20T09:01:11;3.50;99.90
8099;DHT22;4092;47.876;9.372;2022-11-20T09:03:38;3.60;99.90
8099;DHT22;4092;47.876;9.372;2022-11-20T09:06:06;3.70;99.90
8099;DHT22;4092;47.876;9.372;2022-11-20T09:08:34;3.90;99.90
8099;DHT22;4092;47.876;9.372;2022-11-20T09:11:02;4.00;99.90
8099;DHT22;4092;47.876;9.372;2022-11-20T09:13:32;4.10;99.90
8099;DHT22;4092;47.876;9.372;2022-11-20T09:16:01;4.10;99.90
8099;DHT22;4092;47.876;9.372;2022-11-20T09:18:29;4.10;99.90
8099;DHT22;4092;47.876;9.372;2022-11-20T09:20:57;4.00;99.90
8099;DHT22;4092;47.876;9.372;2022-11-20T09:23:25;3.90;99.90
8099;DHT22;4092;47.876;9.372;2022-11-20T09:25:52;3.90;99.90
8099;DHT22;4092;47.876;9.372;2022-11-20T09:28:21;3.90;99.90
8099;DHT22;4092;47.876;9.372;2022-11-20T09:30:50;3.90;99.90
8099;DHT22;4092;47.876;9.372;2022-11-20T09:33:17;3.90;99.90
8099;DHT22;4092;47.876;9.372;2022-11-20T09:35:44;4.00;99.90
8099;DHT22;4092;47.876;9.372;2022-11-20T09:38:12;4.00;99.90
8099;DHT22;4092;47.876;9.372;2022-11-20T09:40:45;4.10;99.90
8099;DHT22;4092;47.876;9.372;2022-11-20T09:43:15;4.10;99.90
8099;DHT22;4092;47.876;9.372;2022-11-20T09:45:55;4.20;99.90
8099;DHT22;4092;47.876;9.372;2022-11-20T09:48:36;4.30;99.90
8099;DHT22;4092;47.876;9.372;2022-11-20T09:51:14;4.30;99.90
8099;DHT22;4092;47.876;9.372;2022-11-20T09:53:52;4.30;99.90
8099;DHT22;4092;47.876;9.372;2022-11-20T09:56:26;4.30;99.90
8099;DHT22;4092;47.876;9.372;2022-11-20T09:58:55;4.40;99.90
8099;DHT22;4092;47.876;9.372;2022-11-20T10:01:30;4.40;99.90
8099;DHT22;4092;47.876;9.372;2022-11-20T10:04:01;4.50;99.90
8099;DHT22;4092;47.876;9.372;2022-11-20T10:06:31;4.50;99.90
8099;DHT22;4092;47.876;9.372;2022-11-20T10:09:08;4.40;99.90
8099;DHT22;4092;47.876;9.372;2022-11-20T10:11:48;4.50;99.90
8099;DHT22;4092;47.876;9.372;2022-11-20T10:14:28;4.50;99.90
8099;DHT22;4092;47.876;9.372;2022-11-20T10:17:05;4.60;99.90
8099;DHT22;4092;47.876;9.372;2022-11-20T10:19:47;4.60;99.90
8099;DHT22;4092;47.876;9.372;2022-11-20T10:22:30;4.40;99.90
8099;DHT22;4092;47.876;9.372;2022-11-20T10:25:05;4.30;99.90
8099;DHT22;4092;47.876;9.372;2022-11-20T10:27:53;4.40;99.90
8099;DHT22;4092;47.876;9.372;2022-11-20T10:30:22;4.40;99.90
8099;DHT22;4092;47.876;9.372;2022-11-20T10:32:55;4.30;99.90
8099;DHT22;4092;47.876;9.372;2022-11-20T10:35:27;4.40;99.90
8099;DHT22;4092;47.876;9.372;2022-11-20T10:37:59;4.50;99.90
8099;DHT22;4092;47.876;9.372;2022-11-20T10:40:32;4.60;99.90
8099;DHT22;4092;47.876;9.372;2022-11-20T10:43:03;4.50;99.90
8099;DHT22;4092;47.876;9.372;2022-11-20T10:45:43;4.60;99.90
8099;DHT22;4092;47.876;9.372;2022-11-20T10:48:21;4.60;99.90
8099;DHT22;4092;47.876;9.372;2022-11-20T10:51:02;4.60;99.90
8099;DHT22;4092;47.876;9.372;2022-11-20T10:53:47;4.60;99.90
8099;DHT22;4092;47.876;9.372;2022-11-20T10:56:20;4.50;99.90
8099;DHT22;4092;47.876;9.372;2022-11-20T11:01:41;4.50;99.90
8099;DHT22;4092;47.876;9.372;2022-11-20T11:04:30;4.50;99.90
8099;DHT22;4092;47.876;9.372;2022-11-20T11:07:06;4.50;99.90
8099;DHT22;4092;47.876;9.372;2022-11-20T11:09:38;4.50;99.90
8099;DHT22;4092;47.876;9.372;2022-11-20T11:12:07;4.50;99.90
8099;DHT22;4092;47.876;9.372;2022-11-20T11:14:46;4.60;99.90
8099;DHT22;4092;47.876;9.372;2022-11-20T11:17:27;4.60;99.90
8099;DHT22;4092;47.876;9.372;2022-11-20T11:20:01;4.60;99.90
8099;DHT22;4092;47.876;9.372;2022-11-20T11:22:33;4.60;99.90
8099;DHT22;4092;47.876;9.372;2022-11-20T11:25:00;4.60;99.90
8099;DHT22;4092;47.876;9.372;2022-11-20T11:27:28;4.60;99.90
8099;DHT22;4092;47.876;9.372;2022-11-20T11:30:16;4.60;99.90
8099;DHT22;4092;47.876;9.372;2022-11-20T11:32:47;4.50;99.90
8099;DHT22;4092;47.876;9.372;2022-11-20T11:35:26;4.50;99.90
8099;DHT22;4092;47.876;9.372;2022-11-20T11:38:02;4.60;99.90
8099;DHT22;4092;47.876;9.372;2022-11-20T11:40:32;4.70;99.90
8099;DHT22;4092;47.876;9.372;2022-11-20T11:43:02;4.70;99.90
8099;DHT22;4092;47.876;9.372;2022-11-20T11:45:31;4.70;99.90
8099;DHT22;4092;47.876;9.372;2022-11-20T11:47:58;4.70;99.90
8099;DHT22;4092;47.876;9.372;2022-11-20T11:50:29;4.70;99.90
8099;DHT22;4092;47.876;9.372;2022-11-20T11:53:04;4.70;99.90
8099;DHT22;4092;47.876;9.372;2022-11-20T11:55:39;4.70;99.90
8099;DHT22;4092;47.876;9.372;2022-11-20T11:58:17;4.70;99.90
8099;DHT22;4092;47.876;9.372;2022-11-20T12:00:53;4.60;99.90
8099;DHT22;4092;47.876;9.372;2022-11-20T12:03:27;4.70;99.90
8099;DHT22;4092;47.876;9.372;2022-11-20T12:05:58;4.70;99.90
8099;DHT22;4092;47.876;9.372;2022-11-20T12:08:30;4.70;99.90
8099;DHT22;4092;47.876;9.372;2022-11-20T12:11:03;4.70;99.90
8099;DHT22;4092;47.876;9.372;2022-11-20T12:13:40;4.80;99.90
8099;DHT22;4092;47.876;9.372;2022-11-20T12:16:16;4.70;99.90
8099;DHT22;4092;47.876;9.372;2022-11-20T12:18:46;4.70;99.90
8099;DHT22;4092;47.876;9.372;2022-11-20T12:21:28;4.70;99.90
8099;DHT22;4092;47.876;9.372;2022-11-20T12:27:08;4.70;99.90
8099;DHT22;4092;47.876;9.372;2022-11-20T12:29:46;4.70;99.90
8099;DHT22;4092;47.876;9.372;2022-11-20T12:32:42;4.70;99.90
8099;DHT22;4092;47.876;9.372;2022-11-20T12:35:32;4.80;99.90
8099;DHT22;4092;47.876;9.372;2022-11-20T12:41:12;4.80;99.90
8099;DHT22;4092;47.876;9.372;2022-11-20T12:44:15;4.80;99.90
8099;DHT22;4092;47.876;9.372;2022-11-20T12:47:10;4.80;99.90
8099;DHT22;4092;47.876;9.372;2022-11-20T12:49:47;4.80;99.90
8099;DHT22;4092;47.876;9.372;2022-11-20T12:52:29;4.80;99.90
8099;DHT22;4092;47.876;9.372;2022-11-20T12:55:20;4.90;99.90
8099;DHT22;4092;47.876;9.372;2022-11-20T12:57:53;5.10;99.90
8099;DHT22;4092;47.876;9.372;2022-11-20T13:00:22;5.10;99.90
8099;DHT22;4092;47.876;9.372;2022-11-20T13:03:16;5.10;99.90
8099;DHT22;4092;47.876;9.372;2022-11-20T13:05:55;5.00;99.90
8099;DHT22;4092;47.876;9.372;2022-11-20T13:08:27;5.10;99.90
8099;DHT22;4092;47.876;9.372;2022-11-20T13:11:01;5.10;99.90
8099;DHT22;4092;47.876;9.372;2022-11-20T13:13:36;5.20;99.90
8099;DHT22;4092;47.876;9.372;2022-11-20T13:16:10;5.20;99.90
8099;DHT22;4092;47.876;9.372;2022-11-20T13:18:40;5.30;99.90
8099;DHT22;4092;47.876;9.372;2022-11-20T13:21:19;5.40;99.90
8099;DHT22;4092;47.876;9.372;2022-11-20T13:23:47;5.30;99.90
8099;DHT22;4092;47.876;9.372;2022-11-20T13:26:19;5.30;99.90
8099;DHT22;4092;47.876;9.372;2022-11-20T13:28:48;5.40;99.90
8099;DHT22;4092;47.876;9.372;2022-11-20T13:31:30;5.40;99.90
8099;DHT22;4092;47.876;9.372;2022-11-20T13:33:59;5.40;99.90
8099;DHT22;4092;47.876;9.372;2022-11-20T13:36:28;5.30;99.90
8099;DHT22;4092;47.876;9.372;2022-11-20T13:38:56;5.20;99.90
8099;DHT22;4092;47.876;9.372;2022-11-20T13:41:26;5.20;99.90
8099;DHT22;4092;47.876;9.372;2022-11-20T13:44:04;5.20;99.90
8099;DHT22;4092;47.876;9.372;2022-11-20T13:46:37;5.10;99.90
8099;DHT22;4092;47.876;9.372;2022-11-20T13:49:10;5.10;99.90
8099;DHT22;4092;47.876;9.372;2022-11-20T13:51:42;5.10;99.90
8099;DHT22;4092;47.876;9.372;2022-11-20T13:54:32;5.10;99.90
8099;DHT22;4092;47.876;9.372;2022-11-20T13:57:19;5.00;99.90
8099;DHT22;4092;47.876;9.372;2022-11-20T13:59:56;5.00;99.90
8099;DHT22;4092;47.876;9.372;2022-11-20T14:02:27;4.90;99.90
8099;DHT22;4092;47.876;9.372;2022-11-20T14:04:57;5.00;99.90
8099;DHT22;4092;47.876;9.372;2022-11-20T14:07:32;5.00;99.90
8099;DHT22;4092;47.876;9.372;2022-11-20T14:10:02;5.00;99.90
8099;DHT22;4092;47.876;9.372;2022-11-20T14:12:32;5.00;99.90
8099;DHT22;4092;47.876;9.372;2022-11-20T14:15:00;5.00;99.90
8099;DHT22;4092;47.876;9.372;2022-11-20T14:17:31;5.00;99.90
8099;DHT22;4092;47.876;9.372;2022-11-20T14:20:00;5.00;99.90
8099;DHT22;4092;47.876;9.372;2022-11-20T14:22:28;5.10;99.90
8099;DHT22;4092;47.876;9.372;2022-11-20T14:25:04;5.10;99.90
8099;DHT22;4092;47.876;9.372;2022-11-20T14:27:36;5.20;99.90
8099;DHT22;4092;47.876;9.372;2022-11-20T14:30:05;5.20;99.90
8099;DHT22;4092;47.876;9.372;2022-11-20T14:32:35;5.10;99.90
8099;DHT22;4092;47.876;9.372;2022-11-20T14:35:07;5.10;99.90
8099;DHT22;4092;47.876;9.372;2022-11-20T14:37:37;5.10;99.90
8099;DHT22;4092;47.876;9.372;2022-11-20T14:40:21;5.10;99.90
8099;DHT22;4092;47.876;9.372;2022-11-20T14:42:50;5.10;99.90
8099;DHT22;4092;47.876;9.372;2022-11-20T14:45:17;5.10;99.90
8099;DHT22;4092;47.876;9.372;2022-11-20T14:47:45;5.20;99.90
8099;DHT22;4092;47.876;9.372;2022-11-20T14:50:16;5.30;99.90
8099;DHT22;4092;47.876;9.372;2022-11-20T14:52:50;5.20;99.90
8099;DHT22;4092;47.876;9.372;2022-11-20T14:55:29;5.10;99.90
8099;DHT22;4092;47.876;9.372;2022-11-20T14:58:00;5.10;99.90
8099;DHT22;4092;47.876;9.372;2022-11-20T15:00:28;5.10;99.90
8099;DHT22;4092;47.876;9.372;2022-11-20T15:02:56;5.00;99.90
8099;DHT22;4092;47.876;9.372;2022-11-20T15:05:24;4.90;99.90
8099;DHT22;4092;47.876;9.372;2022-11-20T15:08:05;4.90;99.90
8099;DHT22;4092;47.876;9.372;2022-11-20T15:10:33;4.90;99.90
8099;DHT22;4092;47.876;9.372;2022-11-20T15:13:04;4.80;99.90
8099;DHT22;4092;47.876;9.372;2022-11-20T15:15:35;4.80;99.90
8099;DHT22;4092;47.876;9.372;2022-11-20T15:18:03;4.80;99.90
8099;DHT22;4092;47.876;9.372;2022-11-20T15:20:31;4.70;99.90
8099;DHT22;4092;47.876;9.372;2022-11-20T15:22:59;4.80;99.90
8099;DHT22;4092;47.876;9.372;2022-11-20T15:25:26;4.80;99.90
8099;DHT22;4092;47.876;9.372;2022-11-20T15:27:55;4.70;99.90
8099;DHT22;4092;47.876;9.372;2022-11-20T15:30:24;4.70;99.90
8099;DHT22;4092;47.876;9.372;2022-11-20T15:32:51;4.70;99.90
8099;DHT22;4092;47.876;9.372;2022-11-20T15:35:18;4.60;99.90
8099;DHT22;4092;47.876;9.372;2022-11-20T15:37:45;4.60;99.90
8099;DHT22;4092;47.876;9.372;2022-11-20T15:40:12;4.60;99.90
8099;DHT22;4092;47.876;9.372;2022-11-20T15:42:39;4.60;99.90
8099;DHT22;4092;47.876;9.372;2022-11-20T15:45:33;4.50;99.90
8099;DHT22;4092;47.876;9.372;2022-11-20T15:48:01;4.50;99.90
8099;DHT22;4092;47.876;9.372;2022-11-20T15:50:34;4.40;99.90
8099;DHT22;4092;47.876;9.372;2022-11-20T15:53:02;4.40;99.90
8099;DHT22;4092;47.876;9.372;2022-11-20T15:55:30;4.40;99.90
8099;DHT22;4092;47.876;9.372;2022-11-20T15:57:57;4.40;99.90
8099;DHT22;4092;47.876;9.372;2022-11-20T16:00:24;4.40;99.90
8099;DHT22;4092;47.876;9.372;2022-11-20T16:02:52;4.40;99.90
8099;DHT22;4092;47.876;9.372;2022-11-20T16:05:19;4.40;99.90
8099;DHT22;4092;47.876;9.372;2022-11-20T16:07:48;4.50;99.90
8099;DHT22;4092;47.876;9.372;2022-11-20T16:10:16;4.50;99.90
8099;DHT22;4092;47.876;9.372;2022-11-20T16:12:43;4.40;99.90
8099;DHT22;4092;47.876;9.372;2022-11-20T16:15:28;4.40;99.90
8099;DHT22;4092;47.876;9.372;2022-11-20T16:18:17;4.40;99.90
8099;DHT22;4092;47.876;9.372;2022-11-20T16:20:46;4.30;99.90
8099;DHT22;4092;47.876;9.372;2022-11-20T16:23:14;4.30;99.90
8099;DHT22;4092;47.876;9.372;2022-11-20T16:25:42;4.40;99.90
8099;DHT22;4092;47.876;9.372;2022-11-20T16:28:09;4.40;99.90
8099;DHT22;4092;47.876;9.372;2022-11-20T16:30:36;4.30;99.90
8099;DHT22;4092;47.876;9.372;2022-11-20T16:33:03;4.30;99.90
8099;DHT22;4092;47.876;9.372;2022-11-20T16:35:32;4.20;99.90
8099;DHT22;4092;47.876;9.372;2022-11-20T16:37:59;4.10;99.90
8099;DHT22;4092;47.876;9.372;2022-11-20T16:40:26;4.00;99.90
8099;DHT22;4092;47.876;9.372;2022-11-20T16:42:53;4.00;99.90
8099;DHT22;4092;47.876;9.372;2022-11-20T16:45:20;4.00;99.90
8099;DHT22;4092;47.876;9.372;2022-11-20T16:47:47;4.00;99.90